createdAt,value
2018-11-23T00:00:16.712Z,63.10
2018-11-23T00:02:45.887Z,62.90
2018-11-23T00:05:14.174Z,62.70
2018-11-23T00:07:42.825Z,62.10
2018-11-23T00:10:13.529Z,61.90
2018-11-23T00:12:41.743Z,61.60
2018-11-23T00:15:15.538Z,61.60
2018-11-23T00:17:43.712Z,61.30
2018-11-23T00:20:17.135Z,61.10
2018-11-23T00:22:45.231Z,61.30
2018-11-23T00:25:15.975Z,61.40
2018-11-23T00:27:44.338Z,61.10
2018-11-23T00:30:15.320Z,60.70
2018-11-23T00:32:44.203Z,61.10
2018-11-23T00:35:14.159Z,61.80
2018-11-23T00:37:43.038Z,61.30
2018-11-23T00:40:14.220Z,61.40
2018-11-23T00:42:42.745Z,61.50
2018-11-23T00:45:12.539Z,61.30
2018-11-23T00:47:41.015Z,60.50
2018-11-23T00:50:12.193Z,59.90
2018-11-23T00:52:41.024Z,59.70
2018-11-23T00:55:10.965Z,59.70
2018-11-23T00:57:39.218Z,59.50
2018-11-23T01:00:12.143Z,59.60
2018-11-23T01:02:40.343Z,59.60
2018-11-23T01:05:09.566Z,59.20
2018-11-23T01:07:37.914Z,59.10
2018-11-23T01:10:08.898Z,59.50
2018-11-23T01:12:36.965Z,59.50
2018-11-23T01:15:05.952Z,59.50
2018-11-23T01:17:34.247Z,59.00
2018-11-23T01:20:02.514Z,59.30
2018-11-23T01:22:30.680Z,59.10
2018-11-23T01:24:58.805Z,58.90
2018-11-23T01:27:27.042Z,59.00
2018-11-23T01:29:55.106Z,58.70
2018-11-23T01:32:23.686Z,58.70
2018-11-23T01:34:52.993Z,59.00
2018-11-23T01:37:21.281Z,59.40
2018-11-23T01:39:49.339Z,60.10
2018-11-23T01:42:17.608Z,60.30
2018-11-23T01:44:49.800Z,60.20
2018-11-23T01:47:20.132Z,59.70
2018-11-23T01:49:48.506Z,59.40
2018-11-23T01:52:16.621Z,59.90
2018-11-23T01:54:44.746Z,60.20
2018-11-23T01:57:12.869Z,60.30
2018-11-23T01:59:40.869Z,60.00
2018-11-23T02:02:09.795Z,59.70
2018-11-23T02:04:37.809Z,59.50
2018-11-23T02:07:06.191Z,61.00
2018-11-23T02:09:34.459Z,62.30
2018-11-23T02:12:02.706Z,63.80
2018-11-23T02:14:30.744Z,64.80
2018-11-23T02:16:58.830Z,65.30
2018-11-23T02:19:26.904Z,65.50
2018-11-23T02:21:55.106Z,64.00
2018-11-23T02:24:23.133Z,64.50
2018-11-23T02:26:51.223Z,63.30
2018-11-23T02:29:19.289Z,64.00
2018-11-23T02:31:47.453Z,64.10
2018-11-23T02:34:15.477Z,63.90
2018-11-23T02:36:43.496Z,64.20
2018-11-23T02:39:11.571Z,64.30
2018-11-23T02:41:39.639Z,64.20
2018-11-23T02:44:07.736Z,64.50
2018-11-23T02:46:35.823Z,64.60
2018-11-23T02:49:04.226Z,64.60
2018-11-23T02:51:32.312Z,64.50
2018-11-23T02:54:00.382Z,64.50
2018-11-23T02:56:47.825Z,64.00
2018-11-23T02:59:15.940Z,64.00
2018-11-23T03:01:43.979Z,64.40
2018-11-23T03:04:12.099Z,64.00
2018-11-23T03:06:40.161Z,63.70
2018-11-23T03:09:09.569Z,64.00
2018-11-23T03:11:39.422Z,63.20
2018-11-23T03:14:07.762Z,63.10
2018-11-23T03:16:36.165Z,63.20
2018-11-23T03:19:04.719Z,62.80
2018-11-23T03:21:32.767Z,63.00
2018-11-23T03:24:00.786Z,63.30
2018-11-23T03:26:28.841Z,64.00
2018-11-23T03:28:56.927Z,64.00
2018-11-23T03:31:25.624Z,63.80
2018-11-23T03:33:54.073Z,63.70
2018-11-23T03:36:22.987Z,64.10
2018-11-23T03:38:51.353Z,64.00
2018-11-23T03:41:19.427Z,63.60
2018-11-23T03:43:47.493Z,63.50
2018-11-23T03:46:15.602Z,64.10
2018-11-23T03:48:43.651Z,64.10
2018-11-23T03:51:11.818Z,63.90
2018-11-23T03:53:39.901Z,64.00
2018-11-23T03:56:08.009Z,63.90
2018-11-23T03:58:36.063Z,64.40
2018-11-23T04:01:04.298Z,64.30
2018-11-23T04:03:32.334Z,63.50
2018-11-23T04:06:00.362Z,63.60
2018-11-23T04:08:28.385Z,63.60
2018-11-23T04:10:56.372Z,64.90
2018-11-23T04:13:24.491Z,64.80
2018-11-23T04:15:52.586Z,64.90
2018-11-23T04:18:20.710Z,64.00
2018-11-23T04:20:54.503Z,63.80
2018-11-23T04:23:22.618Z,64.10
2018-11-23T04:25:51.296Z,63.70
2018-11-23T04:28:19.351Z,62.70
2018-11-23T04:30:47.403Z,62.70
2018-11-23T04:33:15.625Z,63.80
2018-11-23T04:35:43.697Z,63.60
2018-11-23T04:38:11.733Z,64.20
2018-11-23T04:40:39.802Z,63.40
2018-11-23T04:43:07.895Z,63.30
2018-11-23T04:45:35.891Z,64.00
2018-11-23T04:48:04.253Z,63.80
2018-11-23T04:50:32.303Z,62.50
2018-11-23T04:53:00.433Z,61.20
2018-11-23T04:55:28.465Z,60.40
2018-11-23T04:57:56.502Z,58.90
2018-11-23T05:00:24.565Z,58.10
2018-11-23T05:02:52.572Z,57.90
2018-11-23T05:05:20.675Z,57.20
2018-11-23T05:07:48.749Z,56.80
2018-11-23T05:10:18.066Z,57.00
2018-11-23T05:12:46.161Z,56.90
2018-11-23T05:15:15.593Z,55.90
2018-11-23T05:17:43.801Z,56.70
2018-11-23T05:20:12.619Z,55.70
2018-11-23T05:22:40.902Z,56.00
2018-11-23T05:25:11.206Z,55.70
2018-11-23T05:27:39.238Z,55.30
2018-11-23T05:30:13.657Z,55.30
2018-11-23T05:32:41.694Z,55.30
2018-11-23T05:35:11.198Z,55.50
2018-11-23T05:37:39.262Z,55.30
2018-11-23T05:40:12.249Z,54.60
2018-11-23T05:42:40.393Z,54.80
2018-11-23T05:45:11.986Z,54.60
2018-11-23T05:47:40.122Z,54.60
2018-11-23T05:50:13.184Z,53.60
2018-11-23T05:52:42.209Z,54.20
2018-11-23T05:55:10.787Z,56.50
2018-11-23T05:57:38.913Z,58.10
2018-11-23T06:00:11.034Z,58.90
2018-11-23T06:02:39.053Z,59.60
2018-11-23T06:05:07.561Z,60.00
2018-11-23T06:07:35.728Z,60.50
2018-11-23T06:10:06.012Z,61.30
2018-11-23T06:12:34.185Z,61.50
2018-11-23T06:15:02.325Z,61.90
2018-11-23T06:17:30.386Z,61.90
2018-11-23T06:19:58.421Z,62.30
2018-11-23T06:22:26.456Z,62.40
2018-11-23T06:24:54.965Z,62.40
2018-11-23T06:27:23.165Z,63.00
2018-11-23T06:29:51.223Z,64.10
2018-11-23T06:32:36.405Z,64.70
2018-11-23T06:35:05.134Z,66.60
2018-11-23T06:37:33.381Z,68.80
2018-11-23T06:40:01.546Z,70.10
2018-11-23T06:42:29.697Z,70.40
2018-11-23T06:44:57.909Z,71.00
2018-11-23T06:47:26.223Z,71.60
2018-11-23T06:49:54.372Z,72.00
2018-11-23T06:52:22.502Z,72.70
2018-11-23T06:54:50.705Z,73.10
2018-11-23T06:57:18.881Z,73.30
2018-11-23T06:59:46.958Z,73.30
2018-11-23T07:02:15.062Z,73.20
2018-11-23T07:04:43.125Z,74.50
2018-11-23T07:07:11.408Z,73.80
2018-11-23T07:09:39.490Z,74.40
2018-11-23T07:12:07.689Z,74.90
2018-11-23T07:14:35.830Z,75.10
2018-11-23T07:17:04.218Z,75.00
2018-11-23T07:19:32.352Z,74.70
2018-11-23T07:22:00.550Z,74.80
2018-11-23T07:24:28.791Z,74.70
2018-11-23T07:26:57.013Z,74.40
2018-11-23T07:29:25.496Z,74.60
2018-11-23T07:31:53.751Z,74.70
2018-11-23T07:34:22.892Z,74.60
2018-11-23T07:36:50.179Z,74.20
2018-11-23T07:39:35.356Z,73.80
2018-11-23T07:42:18.969Z,73.70
2018-11-23T07:44:47.157Z,73.30
2018-11-23T07:47:15.253Z,72.90
2018-11-23T07:49:44.329Z,73.30
2018-11-23T07:52:12.492Z,72.60
2018-11-23T07:54:40.592Z,73.30
2018-11-23T07:57:09.291Z,74.20
2018-11-23T07:59:37.710Z,75.20
2018-11-23T08:02:08.997Z,76.00
2018-11-23T08:04:38.361Z,76.00
2018-11-23T08:07:07.859Z,75.90
2018-11-23T08:09:36.167Z,75.20
2018-11-23T08:12:05.037Z,75.10
2018-11-23T08:14:33.230Z,74.40
2018-11-23T08:17:01.793Z,73.60
2018-11-23T08:19:30.073Z,72.60
2018-11-23T08:21:58.380Z,72.80
2018-11-23T08:24:27.192Z,72.80
2018-11-23T08:26:54.873Z,72.60
2018-11-23T08:29:22.903Z,72.60
2018-11-23T08:31:51.777Z,72.60
2018-11-23T08:34:19.893Z,73.50
2018-11-23T08:36:48.000Z,73.60
2018-11-23T08:39:16.121Z,73.40
2018-11-23T08:41:44.333Z,73.30
2018-11-23T08:44:12.535Z,72.90
2018-11-23T08:46:40.665Z,72.90
2018-11-23T08:49:08.892Z,73.00
2018-11-23T08:51:37.036Z,73.00
2018-11-23T08:54:05.281Z,72.70
2018-11-23T08:56:34.389Z,72.50
2018-11-23T08:59:02.692Z,72.40
2018-11-23T09:01:30.900Z,71.90
2018-11-23T09:03:59.033Z,72.00
2018-11-23T09:06:27.208Z,72.00
2018-11-23T09:08:55.496Z,72.10
2018-11-23T09:11:23.658Z,71.60
2018-11-23T09:13:52.064Z,71.20
2018-11-23T09:16:20.236Z,71.20
2018-11-23T09:18:48.535Z,71.40
2018-11-23T09:21:16.754Z,71.40
2018-11-23T09:23:44.967Z,71.50
2018-11-23T09:26:13.121Z,71.70
2018-11-23T09:28:41.227Z,71.20
2018-11-23T09:31:09.369Z,71.40
2018-11-23T09:33:37.514Z,71.20
2018-11-23T09:36:05.614Z,71.30
2018-11-23T09:38:33.800Z,70.80
2018-11-23T09:41:01.892Z,70.60
2018-11-23T09:43:30.130Z,70.60
2018-11-23T09:45:58.472Z,70.20
2018-11-23T09:48:26.754Z,69.70
2018-11-23T09:50:55.233Z,69.40
2018-11-23T09:53:23.313Z,69.30
2018-11-23T09:55:51.458Z,69.20
2018-11-23T09:58:19.577Z,68.70
2018-11-23T10:00:47.835Z,68.70
2018-11-23T10:03:15.923Z,69.00
2018-11-23T10:05:44.153Z,68.10
2018-11-23T10:08:12.302Z,76.20
2018-11-23T10:10:40.409Z,72.30
2018-11-23T10:13:08.483Z,65.30
2018-11-23T10:15:36.670Z,63.20
2018-11-23T10:18:05.973Z,64.40
2018-11-23T10:20:34.826Z,65.60
2018-11-23T10:23:03.223Z,66.20
2018-11-23T10:25:32.800Z,66.10
2018-11-23T10:28:01.221Z,66.40
2018-11-23T10:30:30.808Z,67.20
2018-11-23T10:33:00.392Z,66.00
2018-11-23T10:35:28.771Z,66.60
2018-11-23T10:37:58.686Z,65.40
2018-11-23T10:40:30.117Z,65.60
2018-11-23T10:42:58.418Z,65.50
2018-11-23T10:45:28.024Z,65.00
2018-11-23T10:47:57.405Z,64.70
2018-11-23T10:50:28.070Z,64.60
2018-11-23T10:52:56.604Z,63.50
2018-11-23T10:55:26.619Z,63.20
2018-11-23T10:57:55.052Z,63.10
2018-11-23T11:00:28.929Z,63.20
2018-11-23T11:03:07.899Z,63.00
2018-11-23T11:05:36.061Z,62.90
2018-11-23T11:08:05.038Z,62.30
2018-11-23T11:10:33.870Z,62.30
2018-11-23T11:13:02.075Z,62.00
2018-11-23T11:15:30.290Z,62.40
2018-11-23T11:17:58.437Z,62.30
2018-11-23T11:20:26.757Z,61.60
2018-11-23T11:23:00.185Z,61.40
2018-11-23T11:25:28.360Z,60.70
2018-11-23T11:27:57.456Z,60.20
2018-11-23T11:30:25.726Z,60.10
2018-11-23T11:32:53.977Z,60.10
2018-11-23T11:35:22.187Z,60.30
2018-11-23T11:37:50.452Z,60.00
2018-11-23T11:40:19.392Z,59.70
2018-11-23T11:42:47.545Z,59.70
2018-11-23T11:45:17.352Z,59.50
2018-11-23T11:47:46.195Z,59.20
2018-11-23T11:50:14.791Z,58.10
2018-11-23T11:52:44.492Z,57.00
2018-11-23T11:55:14.683Z,57.60
2018-11-23T11:57:43.487Z,58.10
2018-11-23T12:00:13.864Z,58.60
2018-11-23T12:02:42.069Z,58.10
2018-11-23T12:05:11.510Z,57.70
2018-11-23T12:07:40.082Z,57.90
2018-11-23T12:10:15.104Z,58.00
2018-11-23T12:12:43.556Z,57.70
2018-11-23T12:15:12.812Z,57.70
2018-11-23T12:17:41.391Z,57.00
2018-11-23T12:20:17.625Z,57.10
2018-11-23T12:22:46.289Z,57.20
2018-11-23T12:25:14.762Z,56.60
2018-11-23T12:27:43.126Z,56.00
2018-11-23T12:30:14.247Z,56.30
2018-11-23T12:32:43.617Z,56.70
2018-11-23T12:35:13.435Z,56.30
2018-11-23T12:37:41.726Z,56.90
2018-11-23T12:40:12.158Z,56.80
2018-11-23T12:42:40.542Z,57.10
2018-11-23T12:45:14.560Z,57.30
2018-11-23T12:47:42.894Z,56.80
2018-11-23T12:50:14.616Z,55.30
2018-11-23T12:52:42.960Z,54.90
2018-11-23T12:55:12.143Z,56.20
2018-11-23T12:57:40.649Z,55.70
2018-11-23T13:00:20.822Z,55.40
2018-11-23T13:02:51.260Z,55.50
2018-11-23T13:05:23.982Z,54.90
2018-11-23T13:07:52.953Z,54.60
2018-11-23T13:10:22.161Z,55.00
2018-11-23T13:12:50.872Z,54.70
2018-11-23T13:15:19.292Z,55.10
2018-11-23T13:17:47.629Z,55.30
2018-11-23T13:20:16.058Z,55.40
2018-11-23T13:22:44.447Z,55.00
2018-11-23T13:25:15.876Z,55.20
2018-11-23T13:27:44.169Z,55.00
2018-11-23T13:30:16.993Z,54.20
2018-11-23T13:32:45.614Z,53.60
2018-11-23T13:35:16.639Z,53.30
2018-11-23T13:37:44.950Z,53.00
2018-11-23T13:40:17.314Z,53.40
2018-11-23T13:42:47.449Z,53.80
2018-11-23T13:45:17.929Z,53.80
2018-11-23T13:47:46.485Z,53.90
2018-11-23T13:50:16.699Z,54.20
2018-11-23T13:52:45.809Z,54.20
2018-11-23T13:55:14.460Z,54.40
2018-11-23T13:57:42.675Z,54.70
2018-11-23T14:00:18.781Z,54.70
2018-11-23T14:02:47.222Z,54.80
2018-11-23T14:05:16.892Z,54.50
2018-11-23T14:07:46.472Z,55.00
2018-11-23T14:10:16.293Z,55.30
2018-11-23T14:12:44.987Z,55.70
2018-11-23T14:15:31.070Z,55.90
2018-11-23T14:18:02.056Z,56.40
2018-11-23T14:20:30.687Z,56.30
2018-11-23T14:22:58.867Z,56.50
2018-11-23T14:25:28.891Z,56.20
2018-11-23T14:27:57.488Z,56.40
2018-11-23T14:30:29.459Z,56.60
2018-11-23T14:32:57.972Z,56.80
2018-11-23T14:35:27.862Z,57.20
2018-11-23T14:37:56.751Z,57.40
2018-11-23T14:40:25.046Z,57.80
2018-11-23T14:42:54.079Z,58.00
2018-11-23T14:45:25.326Z,58.10
2018-11-23T14:47:54.856Z,57.90
2018-11-23T14:50:24.701Z,58.30
2018-11-23T14:52:53.810Z,58.60
2018-11-23T14:55:22.238Z,58.90
2018-11-23T14:57:50.435Z,59.50
2018-11-23T15:00:22.953Z,60.00
2018-11-23T15:02:54.779Z,60.40
2018-11-23T15:05:23.282Z,61.10
2018-11-23T15:07:51.516Z,61.40
2018-11-23T15:10:21.413Z,61.60
2018-11-23T15:12:50.823Z,62.10
2018-11-23T15:15:20.428Z,62.40
2018-11-23T15:17:49.632Z,62.70
2018-11-23T15:20:20.443Z,63.00
2018-11-23T15:22:56.477Z,63.40
2018-11-23T15:25:24.852Z,64.10
2018-11-23T15:27:53.349Z,64.20
2018-11-23T15:30:23.959Z,64.90
2018-11-23T15:32:52.205Z,65.50
2018-11-23T15:35:21.010Z,65.90
2018-11-23T15:37:49.684Z,66.40
2018-11-23T15:40:23.277Z,67.10
2018-11-23T15:42:53.201Z,67.50
2018-11-23T15:45:22.611Z,68.00
2018-11-23T15:47:50.977Z,68.50
2018-11-23T15:50:21.110Z,68.70
2018-11-23T15:52:49.402Z,69.00
2018-11-23T15:55:23.248Z,69.40
2018-11-23T15:57:52.549Z,69.80
2018-11-23T16:00:24.170Z,67.60
2018-11-23T16:02:52.965Z,66.40
2018-11-23T16:05:21.578Z,66.50
2018-11-23T16:07:51.269Z,65.70
2018-11-23T16:10:25.367Z,65.60
2018-11-23T16:12:55.655Z,65.20
2018-11-23T16:15:24.584Z,65.00
2018-11-23T16:17:54.129Z,64.90
2018-11-23T16:20:26.332Z,65.20
2018-11-23T16:22:57.160Z,65.30
2018-11-23T16:25:25.354Z,64.30
2018-11-23T16:27:57.962Z,64.40
2018-11-23T16:30:27.822Z,64.20
2018-11-23T16:32:57.343Z,63.30
2018-11-23T16:35:26.735Z,63.30
2018-11-23T16:37:55.938Z,62.70
2018-11-23T16:40:27.687Z,62.30
2018-11-23T16:42:56.901Z,62.80
2018-11-23T16:45:27.863Z,63.20
2018-11-23T16:47:57.477Z,63.50
2018-11-23T16:50:26.334Z,64.50
2018-11-23T16:52:55.911Z,63.80
2018-11-23T16:55:24.531Z,64.00
2018-11-23T16:57:55.708Z,64.30
2018-11-23T17:00:26.385Z,64.40
2018-11-23T17:02:55.966Z,64.10
2018-11-23T17:05:26.397Z,63.90
2018-11-23T17:07:54.782Z,64.20
2018-11-23T17:10:23.462Z,64.40
2018-11-23T17:12:51.769Z,63.90
2018-11-23T17:15:21.496Z,63.70
2018-11-23T17:17:49.771Z,63.20
2018-11-23T17:20:20.204Z,63.00
2018-11-23T17:22:52.873Z,63.30
2018-11-23T17:25:23.794Z,63.00
2018-11-23T17:27:52.954Z,63.90
2018-11-23T17:30:25.410Z,62.70
2018-11-23T17:32:54.899Z,62.80
2018-11-23T17:35:23.278Z,62.70
2018-11-23T17:37:51.486Z,62.50
2018-11-23T17:40:21.980Z,62.10
2018-11-23T17:42:50.262Z,62.20
2018-11-23T17:45:25.474Z,62.20
2018-11-23T17:47:54.324Z,62.20
2018-11-23T17:50:23.921Z,62.40
2018-11-23T17:52:52.384Z,62.50
2018-11-23T17:55:21.281Z,62.70
2018-11-23T17:57:50.518Z,63.10
2018-11-23T18:00:28.543Z,62.70
2018-11-23T18:02:57.709Z,65.10
2018-11-23T18:05:26.583Z,66.20
2018-11-23T18:07:54.915Z,65.70
2018-11-23T18:10:24.471Z,66.00
2018-11-23T18:12:53.411Z,66.60
2018-11-23T18:15:24.767Z,67.00
2018-11-23T18:17:54.103Z,66.10
2018-11-23T18:20:24.340Z,65.60
2018-11-23T18:22:53.499Z,64.90
2018-11-23T18:25:30.068Z,65.10
2018-11-23T18:28:01.346Z,65.30
2018-11-23T18:30:31.252Z,65.00
2018-11-23T18:33:01.461Z,64.70
2018-11-23T18:35:29.824Z,63.60
2018-11-23T18:37:58.478Z,64.00
2018-11-23T18:40:27.263Z,63.20
2018-11-23T18:42:55.782Z,62.30
2018-11-23T18:45:24.935Z,62.00
2018-11-23T18:47:53.397Z,62.60
2018-11-23T18:50:21.747Z,62.60
2018-11-23T18:52:50.279Z,63.10
2018-11-23T18:55:19.051Z,63.40
2018-11-23T18:57:47.513Z,63.30
2018-11-23T19:00:16.412Z,63.70
2018-11-23T19:02:46.240Z,63.00
2018-11-23T19:05:17.611Z,62.20
2018-11-23T19:07:46.321Z,62.40
2018-11-23T19:10:22.964Z,62.70
2018-11-23T19:12:51.606Z,62.30
2018-11-23T19:15:25.712Z,61.20
2018-11-23T19:17:58.854Z,60.90
2018-11-23T19:20:27.298Z,60.60
2018-11-23T19:22:56.068Z,60.80
2018-11-23T19:25:24.761Z,60.90
2018-11-23T19:27:53.240Z,61.30
2018-11-23T19:30:28.582Z,60.80
2018-11-23T19:32:52.621Z,60.90
2018-11-23T19:35:21.146Z,60.90
2018-11-23T19:37:49.766Z,60.60
2018-11-23T19:42:57.249Z,60.90
2018-11-23T19:45:26.372Z,61.70
2018-11-23T19:47:55.194Z,61.30
2018-11-23T19:50:23.725Z,60.80
2018-11-23T19:52:52.170Z,61.20
2018-11-23T19:55:20.769Z,60.50
2018-11-23T19:57:49.252Z,60.40
2018-11-23T20:00:22.667Z,61.30
2018-11-23T20:02:51.081Z,60.70
2018-11-23T20:05:19.682Z,60.60
2018-11-23T20:07:51.271Z,60.20
2018-11-23T20:10:22.047Z,61.90
2018-11-23T20:12:53.427Z,62.90
2018-11-23T20:15:21.797Z,63.40
2018-11-23T20:17:50.183Z,63.90
2018-11-23T20:20:18.584Z,63.90
2018-11-23T20:22:48.926Z,64.30
2018-11-23T20:25:18.977Z,64.60
2018-11-23T20:27:48.970Z,64.70
2018-11-23T20:30:18.462Z,64.30
2018-11-23T20:32:46.832Z,64.90
2018-11-23T20:35:18.252Z,64.70
2018-11-23T20:37:46.559Z,64.50
2018-11-23T20:40:17.466Z,64.30
2018-11-23T20:42:45.838Z,63.90
2018-11-23T20:45:14.809Z,64.00
2018-11-23T20:47:43.164Z,64.00
2018-11-23T20:50:13.974Z,64.20
2018-11-23T20:52:42.331Z,64.20
2018-11-23T20:55:14.817Z,64.40
2018-11-23T20:57:43.226Z,63.90
2018-11-23T21:00:16.137Z,63.90
2018-11-23T21:02:45.687Z,63.80
2018-11-23T21:05:15.688Z,64.20
2018-11-23T21:07:44.077Z,63.50
2018-11-23T21:10:20.204Z,64.00
2018-11-23T21:12:45.264Z,63.60
2018-11-23T21:15:26.855Z,64.20
2018-11-23T21:17:56.315Z,64.20
2018-11-23T21:20:24.747Z,64.20
2018-11-23T21:22:53.193Z,63.80
2018-11-23T21:25:21.530Z,64.40
2018-11-23T21:27:49.770Z,63.60
2018-11-23T21:30:19.954Z,63.40
2018-11-23T21:32:48.443Z,64.00
2018-11-23T21:35:16.993Z,64.00
2018-11-23T21:37:45.309Z,64.60
2018-11-23T21:40:16.226Z,64.20
2018-11-23T21:42:44.638Z,64.10
2018-11-23T21:45:16.082Z,64.30
2018-11-23T21:47:44.397Z,64.20
2018-11-23T21:50:16.715Z,64.60
2018-11-23T21:52:45.132Z,65.00
2018-11-23T21:55:16.907Z,64.20
2018-11-23T21:57:45.248Z,64.90
2018-11-23T22:00:15.562Z,65.20
2018-11-23T22:02:43.992Z,64.70
2018-11-23T22:05:12.461Z,65.00
2018-11-23T22:07:40.899Z,65.30
2018-11-23T22:10:16.650Z,65.30
2018-11-23T22:12:45.133Z,65.10
2018-11-23T22:15:24.548Z,65.80
2018-11-23T22:17:55.324Z,66.00
2018-11-23T22:20:24.512Z,66.00
2018-11-23T22:22:52.819Z,65.50
2018-11-23T22:25:22.275Z,65.90
2018-11-23T22:27:50.692Z,65.60
2018-11-23T22:30:28.590Z,65.90
2018-11-23T22:32:57.039Z,65.40
2018-11-23T22:35:26.270Z,65.60
2018-11-23T22:37:54.537Z,65.70
2018-11-23T22:40:22.910Z,65.60
2018-11-23T22:42:53.244Z,66.60
2018-11-23T22:45:21.598Z,66.80
2018-11-23T22:47:49.912Z,67.50
2018-11-23T22:50:20.297Z,67.60
2018-11-23T22:52:48.725Z,67.50
2018-11-23T22:55:18.232Z,67.50
2018-11-23T22:57:46.474Z,67.30
2018-11-23T23:00:22.122Z,67.60
2018-11-23T23:02:50.546Z,67.50
2018-11-23T23:05:20.631Z,67.50
2018-11-23T23:07:48.899Z,67.50
2018-11-23T23:10:17.190Z,67.70
2018-11-23T23:12:45.342Z,67.90
2018-11-23T23:15:13.640Z,68.70
2018-11-23T23:17:42.110Z,68.60
2018-11-23T23:20:16.026Z,68.40
2018-11-23T23:22:44.276Z,69.00
2018-11-23T23:25:13.002Z,69.00
2018-11-23T23:27:41.286Z,68.40
2018-11-23T23:30:14.722Z,67.90
2018-11-23T23:32:43.068Z,67.90
2018-11-23T23:35:12.791Z,67.50
2018-11-23T23:37:41.314Z,67.20
2018-11-23T23:40:12.350Z,66.80
2018-11-23T23:42:40.604Z,66.90
2018-11-23T23:45:10.550Z,66.50
2018-11-23T23:47:38.683Z,66.10
2018-11-23T23:50:12.666Z,66.40
2018-11-23T23:52:40.950Z,66.10
2018-11-23T23:55:09.865Z,65.00
2018-11-23T23:57:47.652Z,66.10
